Time;durP1;ratioP1;P1;durP2;ratioP2;P2;SDS_P1;SDS_P2;PMS_P1;PMS_P2;Temp;Humidity;BMP_temperature;BMP_pressure;BME280_temperature;BME280_humidity;BME280_pressure;Samples;Min_cycle;Max_cycle;Signal;HPM_P1;HPM_P2
2023/06/01 00:01:51;;;;;;;6.55;6.15;;;;;;;15.31;74.69;101472.47;6038473;23;20026;-76
2023/06/01 00:04:17;;;;;;;9.43;6.55;;;;;;;15.22;74.98;101478.31;6063337;23;20040;-76
2023/06/01 00:06:44;;;;;;;6.22;5.72;;;;;;;14.25;74.91;101313.06;6035060;23;20035;-76
2023/06/01 00:09:11;;;;;;;6.57;6.15;;;;;;;14.05;75.05;101310.69;6069862;23;20026;-76
2023/06/01 00:11:38;;;;;;;6.68;5.40;;;;;;;13.76;74.97;101247.25;6041290;23;20046;-76
2023/06/01 00:14:04;;;;;;;6.47;5.70;;;;;;;14.76;75.54;101424.56;6067089;23;20032;-76
2023/06/01 00:16:31;;;;;;;6.70;6.10;;;;;;;14.56;75.37;101391.38;6032404;23;20027;-76
2023/06/01 00:19:00;;;;;;;6.50;6.10;;;;;;;14.44;75.38;101370.09;6061527;23;20621;-76
2023/06/01 00:21:28;;;;;;;6.05;5.65;;;;;;;14.53;76.29;101388.91;6030387;23;20045;-76
2023/06/01 00:23:54;;;;;;;6.28;5.78;;;;;;;14.93;75.92;101475.56;6054954;23;20019;-77
2023/06/01 00:26:21;;;;;;;6.28;5.68;;;;;;;14.33;77.09;101389.16;6068355;23;20570;-76
2023/06/01 00:28:47;;;;;;;5.53;5.22;;;;;;;14.40;76.62;101410.81;6036217;23;20033;-76
2023/06/01 00:31:14;;;;;;;5.60;5.20;;;;;;;14.52;76.87;101452.38;6026864;23;20086;-76
2023/06/01 00:33:41;;;;;;;5.65;5.35;;;;;;;14.85;76.59;101498.97;6061866;23;20050;-75
2023/06/01 00:36:08;;;;;;;6.03;5.63;;;;;;;14.81;77.14;101489.50;6037329;23;20065;-76
2023/06/01 00:38:34;;;;;;;6.45;5.85;;;;;;;14.79;77.60;101491.38;6065032;23;20041;-76
2023/06/01 00:41:01;;;;;;;6.15;5.72;;;;;;;14.56;77.00;101465.34;6033551;23;20034;-76
2023/06/01 00:43:28;;;;;;;5.97;5.47;;;;;;;14.78;77.61;101492.34;6033343;23;20039;-77
2023/06/01 00:45:57;;;;;;;6.18;5.72;;;;;;;14.41;77.05;101441.53;6034637;23;20558;-77
2023/06/01 00:48:23;;;;;;;6.45;5.90;;;;;;;14.08;77.51;101409.03;6060344;23;20030;-75
2023/06/01 00:50:52;;;;;;;6.18;5.55;;;;;;;12.88;78.27;101224.81;6036007;23;20014;-76
2023/06/01 00:53:20;;;;;;;6.22;5.68;;;;;;;13.03;78.78;101255.63;6052673;23;20078;-77
2023/06/01 00:55:47;;;;;;;5.65;5.25;;;;;;;14.49;79.57;101503.59;6060225;23;20089;-76
2023/06/01 00:58:15;;;;;;;6.50;6.00;;;;;;;14.18;80.07;101453.41;6030351;23;20556;-77
2023/06/01 01:00:42;;;;;;;5.93;5.53;;;;;;;14.28;79.85;101489.75;6055300;23;20041;-76
2023/06/01 01:03:09;;;;;;;5.90;5.40;;;;;;;13.63;80.60;101401.84;6057695;23;20607;-77
2023/06/01 01:05:37;;;;;;;7.70;5.82;;;;;;;12.85;81.00;101270.63;6023817;23;20075;-76
2023/06/01 01:08:13;;;;;;;9.30;5.57;;;;;;;13.26;81.09;101343.13;6026298;23;20085;-77
2023/06/01 01:10:55;;;;;;;6.15;5.55;;;;;;;14.25;81.17;101503.16;6046151;23;20017;-77
2023/06/01 01:13:37;;;;;;;5.82;5.35;;;;;;;14.21;82.53;101503.38;6067697;23;20037;-77
2023/06/01 01:16:20;;;;;;;5.93;5.50;;;;;;;14.16;82.49;101508.91;6036880;23;20026;-77
2023/06/01 01:19:21;;;;;;;6.78;6.18;;;;;;;14.08;82.77;101509.31;6061730;23;20042;-77
2023/06/01 01:22:03;;;;;;;5.57;5.28;;;;;;;14.09;83.31;101516.31;6040329;23;20026;-76
2023/06/01 01:28:05;;;;;;;5.60;5.18;;;;;;;13.96;85.17;101513.47;6033524;23;20065;-76
2023/06/01 01:30:35;;;;;;;;;;;;;;;13.91;86.32;101515.53;6033273;23;20059;-77
2023/06/01 01:33:03;;;;;;;6.30;5.70;;;;;;;13.86;86.95;101537.81;6056644;23;19916;-77
2023/06/01 01:35:31;;;;;;;5.88;5.40;;;;;;;13.09;87.90;101418.66;6032870;23;20045;-76
2023/06/01 01:37:57;;;;;;;6.25;5.78;;;;;;;13.07;88.80;101396.81;6057673;23;20093;-77
2023/06/01 01:40:24;;;;;;;6.00;5.60;;;;;;;13.75;89.26;101512.84;6038465;23;20085;-75
2023/06/01 01:42:52;;;;;;;6.30;5.70;;;;;;;12.34;90.00;101299.50;6061382;23;20093;-76
2023/06/01 01:45:19;;;;;;;6.78;5.80;;;;;;;12.75;90.47;101356.31;6035105;23;20033;-76
2023/06/01 01:48:05;;;;;;;5.53;5.22;;;;;;;13.75;90.25;101504.06;6064615;23;20040;-76
2023/06/01 01:50:46;;;;;;;8.50;5.82;;;;;;;12.43;90.69;101319.28;6030856;23;20490;-76
2023/06/01 01:53:14;;;;;;;7.00;6.40;;;;;;;13.43;92.22;101480.22;6030867;23;20015;-77
2023/06/01 01:55:41;;;;;;;6.85;5.50;;;;;;;13.51;92.40;101499.16;6061337;23;20023;-76
2023/06/01 01:58:09;;;;;;;5.90;5.50;;;;;;;13.52;93.55;101503.47;6035003;23;20025;-76
2023/06/01 02:00:38;;;;;;;6.25;5.65;;;;;;;13.13;93.76;101440.44;6080644;23;20006;-76
2023/06/01 02:03:14;;;;;;;6.65;6.00;;;;;;;13.41;94.71;101510.22;6054864;23;20018;-75
2023/06/01 02:05:40;;;;;;;6.50;5.88;;;;;;;13.23;95.96;101501.44;6067732;23;20034;-75
2023/06/01 02:08:07;;;;;;;7.18;6.47;;;;;;;12.62;96.07;101394.72;6037093;23;20027;-76
2023/06/01 02:10:33;;;;;;;8.13;6.85;;;;;;;13.32;96.19;101512.41;6067297;23;20050;-75
2023/06/01 02:13:00;;;;;;;7.53;6.65;;;;;;;12.81;96.98;101426.25;6037551;23;20035;-74
2023/06/01 02:15:26;;;;;;;6.15;5.65;;;;;;;12.20;97.19;101336.19;6062613;23;20469;-75
2023/06/01 02:17:53;;;;;;;7.10;6.40;;;;;;;13.10;98.01;101506.47;6039890;23;20673;-76
2023/06/01 02:20:20;;;;;;;6.65;6.05;;;;;;;12.77;98.38;101458.00;6073944;23;20025;-76
2023/06/01 02:22:46;;;;;;;6.68;5.82;;;;;;;12.92;99.68;101503.81;6036705;23;20046;-77
2023/06/01 02:25:13;;;;;;;8.93;5.50;;;;;;;12.14;99.33;101379.44;6072693;23;20496;-77
2023/06/01 02:27:39;;;;;;;6.30;5.80;;;;;;;12.95;99.95;101531.81;6037919;23;20445;-74
2023/06/01 02:30:07;;;;;;;10.15;5.60;;;;;;;12.62;100.00;101489.50;6047688;23;20022;-77
2023/06/01 02:32:34;;;;;;;6.50;5.70;;;;;;;12.48;100.00;101483.13;6032416;23;20540;-76
2023/06/01 02:35:01;;;;;;;5.80;5.40;;;;;;;12.23;100.00;101469.41;6039869;23;20215;-77
2023/06/01 02:37:27;;;;;;;7.05;6.35;;;;;;;11.55;100.00;101355.00;6034729;23;20410;-77
2023/06/01 02:39:54;;;;;;;8.30;5.57;;;;;;;12.67;100.00;101537.53;6063280;23;20643;-76
2023/06/01 02:42:20;;;;;;;6.47;5.97;;;;;;;10.85;100.00;101253.09;6033174;23;20099;-76
2023/06/01 02:44:47;;;;;;;7.50;6.57;;;;;;;12.60;100.00;101549.28;6067679;23;20037;-77
2023/06/01 02:47:13;;;;;;;5.93;5.43;;;;;;;11.98;100.00;101458.22;6036006;23;20418;-76
2023/06/01 02:49:40;;;;;;;9.13;5.72;;;;;;;12.12;100.00;101483.91;6066783;23;20030;-75
2023/06/01 02:52:06;;;;;;;6.40;5.80;;;;;;;11.79;100.00;101441.56;6035317;23;20035;-77
2023/06/01 02:54:33;;;;;;;6.97;6.38;;;;;;;12.04;100.00;101493.09;6036910;23;20093;-76
2023/06/01 02:57:01;;;;;;;6.78;6.15;;;;;;;12.10;100.00;101506.81;6061501;23;20034;-76
2023/06/01 02:59:27;;;;;;;13.40;6.13;;;;;;;12.11;100.00;101512.94;6044808;23;20083;-78
2023/06/01 03:01:54;;;;;;;9.45;6.40;;;;;;;12.37;100.00;101561.75;6057323;23;20409;-76
2023/06/01 03:04:23;;;;;;;9.00;6.18;;;;;;;12.07;100.00;101522.75;6039851;23;20038;-77
2023/06/01 03:06:49;;;;;;;6.80;6.20;;;;;;;10.49;100.00;101266.91;6063061;23;20030;-76
2023/06/01 03:09:17;;;;;;;10.13;6.15;;;;;;;12.03;100.00;101521.19;6040794;23;20030;-77
2023/06/01 03:11:43;;;;;;;10.80;6.18;;;;;;;11.06;100.00;101359.78;6067203;23;20017;-76
2023/06/01 03:14:10;;;;;;;6.65;5.95;;;;;;;11.22;100.00;101401.16;6059534;23;20054;-75
2023/06/01 03:16:37;;;;;;;6.90;6.32;;;;;;;12.23;100.00;101569.41;6035117;23;20057;-76
2023/06/01 03:19:04;;;;;;;8.73;7.10;;;;;;;11.06;100.00;101380.81;6041556;23;20034;-76
2023/06/01 03:21:31;;;;;;;7.88;7.07;;;;;;;12.25;100.00;101580.72;6030382;23;20465;-76
2023/06/01 03:23:58;;;;;;;6.70;6.10;;;;;;;11.98;100.00;101534.53;6065689;23;20022;-76
2023/06/01 03:26:25;;;;;;;6.70;6.07;;;;;;;12.24;100.00;101598.28;6042075;23;20030;-76
2023/06/01 03:28:55;;;;;;;8.52;7.72;;;;;;;12.25;100.00;101581.59;6065469;23;20042;-76
2023/06/01 03:31:21;;;;;;;7.95;7.07;;;;;;;11.21;100.00;101436.25;6064621;23;20037;-76
2023/06/01 03:33:48;;;;;;;9.13;7.22;;;;;;;12.09;100.00;101560.38;6060393;23;20111;-75
2023/06/01 03:36:15;;;;;;;8.52;7.75;;;;;;;11.11;100.00;101397.25;6032077;23;20076;-77
2023/06/01 03:38:42;;;;;;;7.38;6.70;;;;;;;11.96;100.00;101538.16;6040998;23;20477;-75
2023/06/01 03:41:09;;;;;;;7.38;6.68;;;;;;;11.17;100.00;101443.41;6039678;23;20038;-77
2023/06/01 03:43:35;;;;;;;9.98;7.20;;;;;;;11.24;100.00;101438.75;6066473;23;20097;-77
2023/06/01 03:46:02;;;;;;;8.57;7.47;;;;;;;11.15;100.00;101425.09;6028141;23;20015;-76
2023/06/01 03:48:29;;;;;;;7.80;7.03;;;;;;;11.32;100.00;101455.88;6060309;23;20034;-76
2023/06/01 03:50:55;;;;;;;8.68;7.68;;;;;;;10.77;100.00;101363.69;6032891;23;20013;-76
2023/06/01 03:53:22;;;;;;;8.35;7.47;;;;;;;10.82;100.00;101398.47;6042670;23;20026;-75
2023/06/01 03:55:50;;;;;;;8.30;7.53;;;;;;;11.20;100.00;101453.78;6057999;23;20037;-76
2023/06/01 03:58:19;;;;;;;10.90;7.20;;;;;;;12.09;100.00;101614.78;6041535;23;20090;-76
2023/06/01 04:00:46;;;;;;;11.63;8.40;;;;;;;10.70;100.00;101394.56;6069798;23;20018;-76
2023/06/01 04:03:13;;;;;;;7.30;6.60;;;;;;;11.12;100.00;101446.22;6035939;23;20607;-76
2023/06/01 04:05:41;;;;;;;9.15;7.72;;;;;;;11.84;100.00;101586.00;6034044;23;20059;-76
2023/06/01 04:08:08;;;;;;;8.65;7.07;;;;;;;12.33;100.00;101620.72;6059103;23;20097;-76
2023/06/01 04:10:35;;;;;;;11.35;7.78;;;;;;;12.72;100.00;101615.41;6035788;23;20028;-77
2023/06/01 04:13:02;;;;;;;9.38;8.48;;;;;;;13.03;100.00;101616.63;6038423;23;20038;-76
2023/06/01 04:15:28;;;;;;;8.20;7.50;;;;;;;12.13;100.00;101456.69;6033856;23;20034;-77
2023/06/01 04:17:55;;;;;;;10.18;8.10;;;;;;;12.63;100.00;101509.63;6051580;23;20066;-76
2023/06/01 04:20:22;;;;;;;13.18;8.05;;;;;;;13.14;100.00;101593.22;6034009;23;20054;-77
2023/06/01 04:22:49;;;;;;;9.75;7.35;;;;;;;13.25;99.71;101591.81;6061660;23;20054;-75
2023/06/01 04:25:20;;;;;;;14.27;7.38;;;;;;;13.23;98.74;101598.97;6058253;23;20030;-77
2023/06/01 04:27:49;;;;;;;11.75;8.55;;;;;;;13.07;98.14;101580.41;6052784;23;20048;-76
2023/06/01 04:30:16;;;;;;;8.15;7.18;;;;;;;13.26;98.06;101604.94;6034551;23;20023;-77
2023/06/01 04:32:47;;;;;;;17.63;8.98;;;;;;;13.53;95.52;101604.53;6070316;23;20725;-77
2023/06/01 04:35:14;;;;;;;10.65;8.30;;;;;;;13.72;94.00;101602.69;6037582;23;20702;-77
2023/06/01 04:37:42;;;;;;;9.98;7.95;;;;;;;13.65;92.54;101581.97;6036710;23;20540;-76
2023/06/01 04:40:10;;;;;;;13.15;7.53;;;;;;;13.45;92.08;101541.66;6063651;23;20034;-76
2023/06/01 04:42:38;;;;;;;9.82;7.55;;;;;;;13.88;90.58;101594.84;6036427;23;20014;-77
2023/06/01 04:45:07;;;;;;;12.23;7.93;;;;;;;13.23;90.45;101481.22;6037901;23;20043;-77
2023/06/01 04:47:37;;;;;;;20.88;9.18;;;;;;;12.94;89.64;101451.06;6060735;23;20093;-77
2023/06/01 04:50:08;;;;;;;9.52;8.05;;;;;;;13.51;88.90;101491.22;6032301;23;20034;-77
2023/06/01 04:52:35;;;;;;;10.00;8.70;;;;;;;13.88;87.93;101555.25;6066075;23;20036;-76
2023/06/01 04:55:06;;;;;;;9.77;8.60;;;;;;;13.14;89.18;101518.56;6028406;23;20047;-76
2023/06/01 04:57:34;;;;;;;10.18;8.82;;;;;;;13.00;91.46;101565.84;6064203;23;20011;-76
2023/06/01 05:00:10;;;;;;;13.95;9.35;;;;;;;12.46;94.66;101523.59;6032070;23;20445;-76
2023/06/01 05:02:38;;;;;;;8.30;7.50;;;;;;;13.03;95.54;101621.88;6030822;23;20959;-76
2023/06/01 05:05:06;;;;;;;13.90;8.43;;;;;;;13.05;96.48;101643.75;6035210;23;20387;-77
2023/06/01 05:07:33;;;;;;;15.50;8.63;;;;;;;12.92;95.95;101611.00;6055460;23;20022;-77
2023/06/01 05:10:04;;;;;;;15.10;9.48;;;;;;;12.03;96.98;101483.47;6040479;23;20011;-77
2023/06/01 05:12:33;;;;;;;14.07;9.60;;;;;;;12.84;98.49;101631.56;6056770;23;20093;-77
2023/06/01 05:15:01;;;;;;;15.77;8.75;;;;;;;12.80;99.25;101640.53;6032721;23;20461;-76
2023/06/01 05:17:28;;;;;;;12.48;10.18;;;;;;;12.17;99.50;101510.03;6061220;23;20025;-77
2023/06/01 05:19:54;;;;;;;15.70;10.88;;;;;;;12.66;99.03;101570.91;6037230;23;20129;-76
2023/06/01 05:22:21;;;;;;;20.75;9.13;;;;;;;13.29;99.01;101638.19;6058650;23;20032;-75
2023/06/01 05:24:47;;;;;;;13.10;9.32;;;;;;;13.16;97.66;101596.63;6041323;23;20026;-75
2023/06/01 05:27:14;;;;;;;19.13;8.10;;;;;;;13.49;95.66;101637.25;6062353;23;20089;-75
2023/06/01 05:29:40;;;;;;;16.80;8.65;;;;;;;12.98;94.95;101539.56;6033140;23;20048;-75
2023/06/01 05:32:08;;;;;;;16.13;10.68;;;;;;;13.63;93.53;101619.00;6054319;23;20093;-76
2023/06/01 05:34:34;;;;;;;15.45;8.40;;;;;;;13.52;91.88;101619.50;6037009;23;20517;-77
2023/06/01 05:37:01;;;;;;;9.50;8.40;;;;;;;13.28;92.43;101612.78;6054424;23;20207;-75
2023/06/01 05:39:28;;;;;;;9.77;7.82;;;;;;;13.22;93.52;101623.63;6036173;23;20061;-76
2023/06/01 05:41:55;;;;;;;11.32;7.38;;;;;;;13.38;93.28;101629.88;6058492;23;20527;-77
2023/06/01 05:44:22;;;;;;;20.80;8.73;;;;;;;13.13;93.79;101595.94;6036233;23;20111;-76
2023/06/01 05:46:49;;;;;;;17.60;8.38;;;;;;;12.27;93.55;101461.31;6088445;23;20022;-76
2023/06/01 05:49:15;;;;;;;12.40;8.60;;;;;;;12.45;92.26;101478.00;6034402;23;20485;-75
2023/06/01 05:51:42;;;;;;;22.67;9.50;;;;;;;13.20;92.99;101602.59;6056273;23;20029;-76
2023/06/01 05:54:10;;;;;;;10.35;8.77;;;;;;;13.69;93.52;101639.78;6062334;23;20579;-76
2023/06/01 05:56:37;;;;;;;14.25;10.25;;;;;;;12.19;91.81;101402.91;6035997;23;20037;-75
2023/06/01 05:59:03;;;;;;;12.15;8.50;;;;;;;13.24;90.91;101562.00;6036405;23;20086;-76
2023/06/01 06:01:30;;;;;;;24.98;9.80;;;;;;;13.80;91.17;101633.94;6059540;23;20041;-76
2023/06/01 06:03:57;;;;;;;12.10;9.20;;;;;;;13.12;89.06;101560.81;6034023;23;20043;-76
2023/06/01 06:06:23;;;;;;;16.35;11.05;;;;;;;13.45;89.76;101606.69;6060018;23;20049;-75
2023/06/01 06:08:51;;;;;;;10.93;8.88;;;;;;;13.37;88.88;101612.38;6032370;23;20022;-75
2023/06/01 06:11:18;;;;;;;11.05;8.25;;;;;;;12.84;89.30;101495.44;6082219;23;20029;-75
2023/06/01 06:13:46;;;;;;;16.42;10.40;;;;;;;13.38;89.24;101616.69;6027826;23;20101;-75
2023/06/01 06:16:12;;;;;;;21.13;10.80;;;;;;;12.72;88.67;101483.72;6065762;23;20038;-75
2023/06/01 06:18:39;;;;;;;12.23;8.73;;;;;;;13.59;88.28;101611.28;6037061;23;20851;-75
2023/06/01 06:21:05;;;;;;;24.17;12.38;;;;;;;13.55;87.87;101600.91;6078431;23;20069;-76
2023/06/01 06:23:32;;;;;;;22.38;10.10;;;;;;;13.41;87.59;101636.78;6034301;23;20651;-75
2023/06/01 06:25:59;;;;;;;21.38;10.43;;;;;;;13.16;88.93;101622.97;6058833;23;20018;-75
2023/06/01 06:28:26;;;;;;;27.33;10.73;;;;;;;13.21;89.78;101632.44;6034943;23;20050;-75
2023/06/01 06:30:52;;;;;;;14.05;10.93;;;;;;;13.65;89.30;101645.25;6055820;23;20042;-76
2023/06/01 06:33:19;;;;;;;16.70;10.38;;;;;;;13.32;87.20;101548.47;6037649;23;20031;-76
2023/06/01 06:35:45;;;;;;;17.33;10.18;;;;;;;13.73;86.31;101622.88;6068676;23;20038;-75
2023/06/01 06:38:13;;;;;;;19.35;11.40;;;;;;;13.42;86.26;101607.72;6035352;23;20268;-74
2023/06/01 06:40:39;;;;;;;18.90;10.13;;;;;;;13.30;86.97;101616.22;6033152;23;20042;-75
2023/06/01 06:43:05;;;;;;;15.30;10.80;;;;;;;13.02;88.13;101627.22;6069431;23;20098;-75
2023/06/01 06:45:32;;;;;;;16.88;10.95;;;;;;;13.14;88.98;101635.38;6039547;23;20030;-76
2023/06/01 06:47:58;;;;;;;23.60;12.68;;;;;;;11.73;88.01;101394.53;6074497;23;20056;-78
2023/06/01 06:50:25;;;;;;;20.55;9.35;;;;;;;13.63;87.00;101644.50;6025072;23;20038;-75
2023/06/01 06:52:51;;;;;;;14.27;10.15;;;;;;;13.59;84.76;101622.72;6061818;23;20033;-75
2023/06/01 06:55:18;;;;;;;21.92;10.85;;;;;;;13.63;84.82;101595.25;6058393;23;20046;-76
2023/06/01 06:57:44;;;;;;;21.38;11.48;;;;;;;13.04;84.34;101555.06;6038822;23;20098;-76
2023/06/01 07:00:14;;;;;;;18.42;11.23;;;;;;;13.08;84.20;101579.50;6048589;23;21049;-75
2023/06/01 07:02:41;;;;;;;13.77;9.02;;;;;;;13.43;85.74;101627.91;6026350;23;20043;-75
2023/06/01 07:05:10;;;;;;;14.98;9.10;;;;;;;13.48;85.11;101602.13;6066931;23;20115;-75
2023/06/01 07:07:37;;;;;;;18.13;10.65;;;;;;;12.40;84.58;101464.19;6036271;23;20031;-75
2023/06/01 07:10:05;;;;;;;13.25;10.05;;;;;;;13.85;83.70;101624.03;6064128;23;20085;-76
2023/06/01 07:12:32;;;;;;;11.82;9.38;;;;;;;13.69;82.76;101573.84;6036317;23;20023;-75
2023/06/01 07:14:58;;;;;;;19.63;9.43;;;;;;;13.92;82.32;101601.66;6056604;23;20420;-75
2023/06/01 07:17:25;;;;;;;11.77;8.30;;;;;;;13.46;81.15;101529.31;6039673;23;20022;-75
2023/06/01 07:19:51;;;;;;;14.25;9.95;;;;;;;14.35;79.86;101617.91;6063219;23;20034;-76
2023/06/01 07:22:20;;;;;;;14.98;9.88;;;;;;;13.40;78.72;101467.19;6039431;23;20026;-76
2023/06/01 07:24:47;;;;;;;19.08;9.20;;;;;;;13.27;78.62;101495.94;6070003;23;20024;-76
2023/06/01 07:27:14;;;;;;;17.10;8.75;;;;;;;12.45;79.68;101374.47;6053949;23;20027;-76
2023/06/01 07:29:41;;;;;;;14.75;10.10;;;;;;;13.53;78.34;101499.91;6060114;23;20088;-76
2023/06/01 07:32:08;;;;;;;13.82;9.30;;;;;;;13.39;76.37;101417.16;6042298;23;20034;-76
2023/06/01 07:34:35;;;;;;;11.00;9.45;;;;;;;14.24;76.14;101533.13;6038089;23;20030;-76
2023/06/01 07:37:03;;;;;;;19.73;9.77;;;;;;;13.68;74.89;101440.22;6061775;23;20073;-76
2023/06/01 07:39:43;;;;;;;11.80;9.05;;;;;;;12.35;76.27;101309.13;6042782;23;20046;-76
2023/06/01 07:42:09;;;;;;;16.38;11.38;;;;;;;12.47;76.64;101346.28;6058775;23;20038;-77
2023/06/01 07:44:36;;;;;;;14.38;10.48;;;;;;;12.77;77.35;101402.69;6034236;23;20660;-75
2023/06/01 07:47:03;;;;;;;18.38;10.35;;;;;;;12.97;78.02;101457.03;6061516;23;20633;-75
2023/06/01 07:49:30;;;;;;;17.63;11.35;;;;;;;12.91;78.16;101457.34;6035350;23;21162;-76
2023/06/01 07:51:58;;;;;;;19.55;10.65;;;;;;;13.31;77.89;101478.19;6064095;23;20034;-75
2023/06/01 07:54:25;;;;;;;16.48;10.52;;;;;;;13.81;76.93;101527.50;6032926;23;20022;-76
2023/06/01 07:56:51;;;;;;;13.23;9.82;;;;;;;13.48;75.27;101443.91;6058563;23;20101;-76
2023/06/01 07:59:18;;;;;;;15.68;10.18;;;;;;;13.62;75.50;101479.28;6034169;23;20089;-75
2023/06/01 08:01:44;;;;;;;15.90;10.93;;;;;;;13.86;74.63;101480.59;6061310;23;20044;-76
2023/06/01 08:04:11;;;;;;;14.30;9.07;;;;;;;14.08;73.84;101492.66;6036199;23;20023;-76
2023/06/01 08:06:37;;;;;;;16.70;9.70;;;;;;;13.85;73.76;101452.53;6061173;23;20039;-76
2023/06/01 08:09:04;;;;;;;14.63;10.13;;;;;;;13.89;74.21;101454.06;6032710;23;20616;-76
2023/06/01 08:11:33;;;;;;;17.77;11.00;;;;;;;14.24;73.93;101485.59;6069249;23;20370;-75
2023/06/01 08:14:07;;;;;;;20.48;12.10;;;;;;;14.91;73.68;101523.25;6033902;23;20078;-76
2023/06/01 08:16:33;;;;;;;14.50;9.98;;;;;;;14.84;71.94;101447.91;6064427;23;20029;-76
2023/06/01 08:19:00;;;;;;;18.25;10.75;;;;;;;13.41;71.29;101189.44;6034931;23;20038;-76
2023/06/01 08:21:26;;;;;;;12.88;10.35;;;;;;;15.18;70.25;101453.00;6061541;23;20053;-76
2023/06/01 08:23:56;;;;;;;18.35;11.43;;;;;;;15.03;69.94;101415.94;6029338;23;20039;-77
2023/06/01 08:26:23;;;;;;;13.23;10.57;;;;;;;15.38;69.04;101426.22;6062335;23;20014;-76
2023/06/01 08:28:52;;;;;;;15.38;9.77;;;;;;;15.50;68.33;101395.53;6033539;23;20022;-77
2023/06/01 08:31:20;;;;;;;15.50;11.15;;;;;;;15.20;67.58;101355.94;6057533;23;20042;-76
2023/06/01 08:33:47;;;;;;;17.00;10.38;;;;;;;14.27;69.05;101233.75;6031424;23;20465;-75
2023/06/01 08:36:14;;;;;;;19.88;11.00;;;;;;;15.31;69.34;101395.78;6063016;23;20017;-78
2023/06/01 08:38:41;;;;;;;18.10;10.95;;;;;;;15.64;68.72;101402.59;6030739;23;20026;-78
2023/06/01 08:41:25;;;;;;;17.27;11.48;;;;;;;15.40;66.84;101322.97;6033105;23;20019;-75
2023/06/01 08:44:01;;;;;;;17.40;10.73;;;;;;;15.35;67.04;101334.69;6029241;23;20039;-76
2023/06/01 08:46:30;;;;;;;19.80;12.02;;;;;;;15.34;66.64;101287.19;6038650;23;20087;-76
2023/06/01 08:48:58;;;;;;;15.02;10.85;;;;;;;15.39;67.23;101314.16;6032532;23;20041;-74
2023/06/01 08:51:25;;;;;;;22.48;11.90;;;;;;;15.56;67.38;101352.81;6038241;23;20081;-76
2023/06/01 08:53:55;;;;;;;17.42;12.05;;;;;;;14.41;66.82;101120.22;6026843;23;20081;-74
2023/06/01 08:56:22;;;;;;;14.73;10.77;;;;;;;16.11;66.71;101356.38;6045828;23;20030;-75
2023/06/01 08:58:50;;;;;;;17.20;11.30;;;;;;;15.00;66.20;101172.97;6060408;23;20034;-74
2023/06/01 09:01:20;;;;;;;22.88;12.95;;;;;;;16.33;63.98;101253.38;6064723;23;20026;-75
2023/06/01 09:03:48;;;;;;;24.70;13.30;;;;;;;15.30;62.89;101042.38;6043982;23;20022;-77
2023/06/01 09:06:15;;;;;;;24.63;13.57;;;;;;;16.25;63.05;101223.06;6061863;23;20590;-75
2023/06/01 09:08:42;;;;;;;16.08;11.15;;;;;;;15.46;62.78;101053.63;6034497;23;20030;-77
2023/06/01 09:11:08;;;;;;;28.95;13.38;;;;;;;16.73;61.76;101199.44;6037434;23;20014;-78
2023/06/01 09:13:38;;;;;;;22.40;12.93;;;;;;;16.68;61.69;101170.63;6059696;23;20521;-76
2023/06/01 09:16:05;;;;;;;21.75;13.48;;;;;;;17.00;61.30;101180.78;6034654;23;20021;-78
2023/06/01 09:18:31;;;;;;;19.83;13.20;;;;;;;16.33;60.50;101051.22;6060326;23;20406;-78
2023/06/01 09:21:15;;;;;;;20.70;12.90;;;;;;;17.03;59.74;101087.75;6033528;23;20705;-78
2023/06/01 09:23:42;;;;;;;24.40;13.55;;;;;;;16.78;59.39;101043.59;6064654;23;20074;-78
2023/06/01 09:26:11;;;;;;;23.70;13.05;;;;;;;16.91;60.02;101081.53;6034700;23;20015;-77
2023/06/01 09:28:58;;;;;;;20.67;12.98;;;;;;;16.51;60.19;101054.38;6036122;23;20519;-79
2023/06/01 09:31:47;;;;;;;22.30;12.80;;;;;;;17.57;60.17;101142.13;6025741;23;21138;-79
2023/06/01 09:34:18;;;;;;;19.75;13.90;;;;;;;17.65;58.92;101107.06;6034731;23;20604;-79
2023/06/01 09:36:49;;;;;;;22.83;13.85;;;;;;;17.18;58.60;101006.22;6039634;23;20026;-78
2023/06/01 09:39:18;;;;;;;25.98;13.20;;;;;;;17.25;58.92;101046.38;6053324;23;20026;-78
2023/06/01 09:42:06;;;;;;;21.40;13.90;;;;;;;17.27;59.40;101086.91;6037495;23;20493;-79
2023/06/01 09:44:38;;;;;;;22.40;12.55;;;;;;;17.73;58.16;101065.69;6029571;23;20015;-78
2023/06/01 09:47:14;;;;;;;28.63;14.38;;;;;;;16.32;58.28;100878.22;6057242;23;20014;-79
2023/06/01 09:49:42;;;;;;;23.65;14.23;;;;;;;17.46;57.89;101028.84;6033472;23;20562;-79
2023/06/01 09:52:14;;;;;;;25.05;14.75;;;;;;;16.94;59.27;101000.94;6064034;23;20685;-78
2023/06/01 09:54:44;;;;;;;27.48;14.85;;;;;;;16.43;59.19;100924.28;6039831;23;20080;-81
2023/06/01 09:57:11;;;;;;;25.27;13.88;;;;;;;16.94;58.51;100939.97;6064249;23;20018;-81
2023/06/01 09:59:43;;;;;;;21.05;13.63;;;;;;;17.36;57.70;100956.22;6033515;23;20038;-78
2023/06/01 10:02:18;;;;;;;24.85;12.63;;;;;;;16.86;56.02;100847.75;6059862;23;20036;-77
2023/06/01 10:04:49;;;;;;;24.65;13.98;;;;;;;18.39;56.46;101077.50;6042226;23;20038;-78
2023/06/01 10:07:17;;;;;;;23.55;12.80;;;;;;;18.70;55.78;101060.81;6045129;23;21440;-76
2023/06/01 10:09:48;;;;;;;19.23;11.85;;;;;;;18.82;55.04;101021.78;6033799;23;20108;-77
2023/06/01 10:12:15;;;;;;;23.20;12.65;;;;;;;18.86;55.15;101035.63;6062623;23;20030;-74
2023/06/01 10:14:42;;;;;;;28.95;14.05;;;;;;;18.42;54.67;100931.09;6031390;23;20046;-75
2023/06/01 10:17:09;;;;;;;30.70;14.70;;;;;;;18.03;54.55;100910.28;6080431;23;20505;-74
2023/06/01 10:19:39;;;;;;;24.98;13.50;;;;;;;18.26;55.10;100996.13;6034661;23;20031;-73
2023/06/01 10:22:10;;;;;;;23.55;14.32;;;;;;;18.16;53.98;100898.66;6065579;23;20514;-76
2023/06/01 10:24:43;;;;;;;28.65;12.77;;;;;;;17.23;53.84;100746.78;6028558;23;20440;-74
2023/06/01 10:27:15;;;;;;;;;;;;;;;18.62;54.10;100983.50;6065517;23;20014;-77
2023/06/01 10:29:43;;;;;;;28.25;13.95;;;;;;;17.44;53.59;100744.22;6030184;23;20370;-75
2023/06/01 10:32:37;;;;;;;28.77;14.63;;;;;;;18.96;53.96;101036.56;6041712;23;20109;-75
2023/06/01 10:35:05;;;;;;;16.77;12.25;;;;;;;17.89;53.21;100802.53;6027961;23;20061;-75
2023/06/01 10:37:33;;;;;;;21.38;12.07;;;;;;;17.82;52.52;100748.22;6036027;23;20046;-75
2023/06/01 10:40:20;;;;;;;20.63;12.88;;;;;;;19.23;51.62;100895.09;6039191;23;20049;-80
2023/06/01 10:42:47;;;;;;;15.98;10.32;;;;;;;18.90;51.24;100837.63;6066834;23;20085;-76
2023/06/01 10:45:35;;;;;;;19.42;12.40;;;;;;;19.56;51.45;100977.50;6035303;23;20086;-78
2023/06/01 10:48:03;;;;;;;14.00;9.43;;;;;;;19.53;50.46;100886.28;6062783;23;20026;-78
2023/06/01 10:50:31;;;;;;;19.30;11.07;;;;;;;19.62;48.79;100849.16;6045955;23;20566;-79
2023/06/01 10:53:25;;;;;;;13.63;10.10;;;;;;;19.51;49.83;100879.41;6060127;23;20092;-79
2023/06/01 10:56:27;;;;;;;19.08;10.18;;;;;;;18.80;49.31;100752.47;6033433;23;20026;-80
2023/06/01 10:59:08;;;;;;;17.75;9.77;;;;;;;18.93;50.42;100848.00;6001658;23;20033;-79
2023/06/01 11:01:45;;;;;;;10.70;9.32;;;;;;;19.00;50.26;100889.06;6039464;23;20029;-79
2023/06/01 11:04:13;;;;;;;13.77;8.82;;;;;;;18.74;50.42;100857.53;6042347;23;20018;-78
2023/06/01 11:06:42;;;;;;;12.45;8.50;;;;;;;18.70;50.16;100840.13;6030544;23;22211;-78
2023/06/01 11:09:11;;;;;;;11.25;8.98;;;;;;;19.64;49.29;100921.75;6045702;23;20098;-77
2023/06/01 11:11:48;;;;;;;14.80;9.10;;;;;;;19.57;49.89;100976.53;6039856;23;20046;-77
2023/06/01 11:14:15;;;;;;;11.73;9.10;;;;;;;18.41;49.05;100690.28;6031827;23;20515;-76
2023/06/01 11:16:42;;;;;;;11.77;8.88;;;;;;;19.21;48.36;100806.56;6034323;23;20047;-78
2023/06/01 11:19:10;;;;;;;10.30;8.63;;;;;;;19.11;48.81;100824.31;6062938;23;20061;-79
2023/06/01 11:21:46;;;;;;;15.00;8.40;;;;;;;19.43;49.20;100953.75;6037520;23;20711;-78
2023/06/01 11:24:14;;;;;;;13.90;9.63;;;;;;;18.17;50.48;100779.03;6067448;23;20455;-77
2023/06/01 11:26:48;;;;;;;11.85;8.50;;;;;;;18.62;50.88;100906.41;6037355;23;20026;-76
2023/06/01 11:29:22;;;;;;;11.18;8.68;;;;;;;18.26;48.90;100717.16;6059389;23;20532;-78